sensor_id;sensor_type;location;lat;lon;timestamp;pressure;altitude;pressure_sealevel;temperature;humidity
56811;BME280;42691;47.234;27.494;2022-12-17T00:00:43;99007.53;;;13.81;100.00
56811;BME280;42691;47.234;27.494;2022-12-17T00:03:27;99024.66;;;13.85;100.00
56811;BME280;42691;47.234;27.494;2022-12-17T00:06:11;99030.84;;;13.84;100.00
56811;BME280;42691;47.234;27.494;2022-12-17T00:09:15;99030.63;;;13.87;100.00
56811;BME280;42691;47.234;27.494;2022-12-17T00:12:04;99029.47;;;13.91;100.00
56811;BME280;42691;47.234;27.494;2022-12-17T00:14:48;99034.56;;;13.92;100.00
56811;BME280;42691;47.234;27.494;2022-12-17T00:17:32;99032.78;;;13.93;100.00
56811;BME280;42691;47.234;27.494;2022-12-17T00:20:16;99026.63;;;13.94;100.00
56811;BME280;42691;47.234;27.494;2022-12-17T00:23:02;99024.63;;;13.97;100.00
56811;BME280;42691;47.234;27.494;2022-12-17T00:25:55;99027.56;;;13.93;100.00
56811;BME280;42691;47.234;27.494;2022-12-17T00:28:39;99035.63;;;13.90;100.00
56811;BME280;42691;47.234;27.494;2022-12-17T00:31:24;99033.25;;;13.87;100.00
56811;BME280;42691;47.234;27.494;2022-12-17T00:34:09;99040.13;;;13.88;100.00
56811;BME280;42691;47.234;27.494;2022-12-17T00:36:53;99040.59;;;13.82;100.00
56811;BME280;42691;47.234;27.494;2022-12-17T00:39:37;99025.13;;;13.79;100.00
56811;BME280;42691;47.234;27.494;2022-12-17T00:42:21;99026.56;;;13.83;100.00
56811;BME280;42691;47.234;27.494;2022-12-17T00:45:05;99026.56;;;13.83;100.00
56811;BME280;42691;47.234;27.494;2022-12-17T00:47:49;99021.44;;;13.81;100.00
56811;BME280;42691;47.234;27.494;2022-12-17T00:50:33;99021.56;;;13.80;100.00
56811;BME280;42691;47.234;27.494;2022-12-17T00:53:17;99015.72;;;13.76;100.00
56811;BME280;42691;47.234;27.494;2022-12-17T00:56:01;99016.56;;;13.76;100.00
56811;BME280;42691;47.234;27.494;2022-12-17T00:58:45;99027.00;;;13.76;100.00
56811;BME280;42691;47.234;27.494;2022-12-17T01:01:29;99030.34;;;13.79;100.00
56811;BME280;42691;47.234;27.494;2022-12-17T01:04:13;99018.00;;;13.81;100.00
56811;BME280;42691;47.234;27.494;2022-12-17T01:06:57;99009.94;;;13.84;100.00
56811;BME280;42691;47.234;27.494;2022-12-17T01:09:41;99016.09;;;13.83;100.00
56811;BME280;42691;47.234;27.494;2022-12-17T01:12:25;99017.16;;;13.80;100.00
56811;BME280;42691;47.234;27.494;2022-12-17T01:15:09;99012.16;;;13.77;100.00
56811;BME280;42691;47.234;27.494;2022-12-17T01:17:53;99000.03;;;13.76;100.00
56811;BME280;42691;47.234;27.494;2022-12-17T01:20:37;99001.06;;;13.73;100.00
56811;BME280;42691;47.234;27.494;2022-12-17T01:23:21;98996.78;;;13.72;100.00
56811;BME280;42691;47.234;27.494;2022-12-17T01:26:05;99003.16;;;13.68;100.00
56811;BME280;42691;47.234;27.494;2022-12-17T01:28:48;98998.16;;;13.65;100.00
56811;BME280;42691;47.234;27.494;2022-12-17T01:31:32;98993.38;;;13.59;100.00
56811;BME280;42691;47.234;27.494;2022-12-17T01:34:16;98992.97;;;13.53;100.00
56811;BME280;42691;47.234;27.494;2022-12-17T01:37:00;99000.94;;;13.51;100.00
56811;BME280;42691;47.234;27.494;2022-12-17T01:39:44;98989.03;;;13.47;100.00
56811;BME280;42691;47.234;27.494;2022-12-17T01:42:39;98990.59;;;13.37;100.00
56811;BME280;42691;47.234;27.494;2022-12-17T01:45:25;98990.53;;;13.38;100.00
56811;BME280;42691;47.234;27.494;2022-12-17T01:48:14;98990.94;;;13.32;100.00
56811;BME280;42691;47.234;27.494;2022-12-17T01:51:01;98997.00;;;13.33;100.00
56811;BME280;42691;47.234;27.494;2022-12-17T01:53:49;98991.69;;;13.22;100.00
56811;BME280;42691;47.234;27.494;2022-12-17T01:56:36;98992.63;;;13.21;100.00
56811;BME280;42691;47.234;27.494;2022-12-17T01:59:28;98975.19;;;13.21;100.00
56811;BME280;42691;47.234;27.494;2022-12-17T02:02:17;98963.69;;;13.24;100.00
56811;BME280;42691;47.234;27.494;2022-12-17T02:05:01;98965.97;;;13.15;100.00
56811;BME280;42691;47.234;27.494;2022-12-17T02:10:45;98975.06;;;13.23;100.00
56811;BME280;42691;47.234;27.494;2022-12-17T02:13:36;98971.31;;;13.27;100.00
56811;BME280;42691;47.234;27.494;2022-12-17T02:16:36;98965.56;;;13.22;100.00
56811;BME280;42691;47.234;27.494;2022-12-17T02:19:38;98953.75;;;13.16;100.00
56811;BME280;42691;47.234;27.494;2022-12-17T02:26:18;98988.53;;;13.17;100.00
56811;BME280;42691;47.234;27.494;2022-12-17T02:29:06;98987.19;;;13.24;100.00
56811;BME280;42691;47.234;27.494;2022-12-17T02:31:51;98970.78;;;13.22;100.00
56811;BME280;42691;47.234;27.494;2022-12-17T02:34:45;98971.31;;;13.27;100.00
56811;BME280;42691;47.234;27.494;2022-12-17T02:37:30;98981.75;;;13.27;100.00
56811;BME280;42691;47.234;27.494;2022-12-17T02:40:14;98978.19;;;13.28;100.00
56811;BME280;42691;47.234;27.494;2022-12-17T02:42:59;98989.59;;;13.27;100.00
56811;BME280;42691;47.234;27.494;2022-12-17T02:45:43;98991.97;;;13.30;100.00
56811;BME280;42691;47.234;27.494;2022-12-17T02:48:28;98986.53;;;13.33;100.00
56811;BME280;42691;47.234;27.494;2022-12-17T02:51:12;98973.47;;;13.33;100.00
56811;BME280;42691;47.234;27.494;2022-12-17T02:54:01;98969.41;;;13.29;100.00
56811;BME280;42691;47.234;27.494;2022-12-17T02:56:46;98980.09;;;13.26;100.00
56811;BME280;42691;47.234;27.494;2022-12-17T02:59:30;98981.53;;;13.30;100.00
56811;BME280;42691;47.234;27.494;2022-12-17T03:02:13;98976.94;;;13.33;100.00
56811;BME280;42691;47.234;27.494;2022-12-17T03:04:59;98967.31;;;13.34;100.00
56811;BME280;42691;47.234;27.494;2022-12-17T03:07:43;98956.84;;;13.34;100.00
56811;BME280;42691;47.234;27.494;2022-12-17T03:10:27;98953.53;;;13.32;100.00
56811;BME280;42691;47.234;27.494;2022-12-17T03:13:24;98943.91;;;13.32;100.00
56811;BME280;42691;47.234;27.494;2022-12-17T03:16:13;98937.84;;;13.32;100.00
56811;BME280;42691;47.234;27.494;2022-12-17T03:18:57;98934.78;;;13.38;100.00
56811;BME280;42691;47.234;27.494;2022-12-17T03:21:42;98931.47;;;13.36;100.00
56811;BME280;42691;47.234;27.494;2022-12-17T03:24:26;98930.97;;;13.31;100.00
56811;BME280;42691;47.234;27.494;2022-12-17T03:27:30;98915.72;;;13.25;100.00
56811;BME280;42691;47.234;27.494;2022-12-17T03:30:14;98920.34;;;13.21;100.00
56811;BME280;42691;47.234;27.494;2022-12-17T03:32:57;98922.72;;;13.24;100.00
56811;BME280;42691;47.234;27.494;2022-12-17T03:35:41;98936.41;;;13.28;100.00
56811;BME280;42691;47.234;27.494;2022-12-17T03:38:25;98949.13;;;13.32;100.00
56811;BME280;42691;47.234;27.494;2022-12-17T03:41:09;98956.03;;;13.33;100.00
56811;BME280;42691;47.234;27.494;2022-12-17T03:43:53;98948.31;;;13.32;100.00
56811;BME280;42691;47.234;27.494;2022-12-17T03:46:37;98971.47;;;13.36;100.00
56811;BME280;42691;47.234;27.494;2022-12-17T03:49:21;98967.09;;;13.37;100.00
56811;BME280;42691;47.234;27.494;2022-12-17T03:52:05;98956.63;;;13.37;100.00
56811;BME280;42691;47.234;27.494;2022-12-17T03:54:49;98955.91;;;13.35;100.00
56811;BME280;42691;47.234;27.494;2022-12-17T03:57:33;98972.53;;;13.34;100.00
56811;BME280;42691;47.234;27.494;2022-12-17T04:00:17;98989.25;;;13.31;100.00
56811;BME280;42691;47.234;27.494;2022-12-17T04:03:01;99015.06;;;13.36;100.00
56811;BME280;42691;47.234;27.494;2022-12-17T04:05:45;98973.19;;;13.12;100.00
56811;BME280;42691;47.234;27.494;2022-12-17T04:08:29;99021.88;;;13.38;100.00
56811;BME280;42691;47.234;27.494;2022-12-17T04:11:13;99034.19;;;13.36;100.00
56811;BME280;42691;47.234;27.494;2022-12-17T04:13:57;99036.91;;;13.35;100.00
56811;BME280;42691;47.234;27.494;2022-12-17T04:16:41;99030.00;;;13.34;100.00
56811;BME280;42691;47.234;27.494;2022-12-17T04:19:25;99034.06;;;13.38;100.00
56811;BME280;42691;47.234;27.494;2022-12-17T04:22:09;99021.22;;;13.35;100.00
56811;BME280;42691;47.234;27.494;2022-12-17T04:24:52;99028.78;;;13.39;100.00
56811;BME280;42691;47.234;27.494;2022-12-17T04:27:36;99016.84;;;13.35;100.00
56811;BME280;42691;47.234;27.494;2022-12-17T04:30:21;99017.28;;;13.42;100.00
56811;BME280;42691;47.234;27.494;2022-12-17T04:33:04;99019.88;;;13.42;100.00
56811;BME280;42691;47.234;27.494;2022-12-17T04:35:48;99000.09;;;13.38;100.00
56811;BME280;42691;47.234;27.494;2022-12-17T04:38:32;99007.22;;;13.36;100.00
56811;BME280;42691;47.234;27.494;2022-12-17T04:41:17;99001.06;;;13.37;100.00
56811;BME280;42691;47.234;27.494;2022-12-17T04:44:01;99002.00;;;13.36;100.00
56811;BME280;42691;47.234;27.494;2022-12-17T04:46:45;99012.88;;;13.42;100.00
56811;BME280;42691;47.234;27.494;2022-12-17T04:49:29;99007.53;;;13.44;100.00
56811;BME280;42691;47.234;27.494;2022-12-17T04:52:13;99003.25;;;13.43;100.00
56811;BME280;42691;47.234;27.494;2022-12-17T04:54:57;99002.31;;;13.44;100.00
56811;BME280;42691;47.234;27.494;2022-12-17T04:57:41;99002.09;;;13.47;100.00
56811;BME280;42691;47.234;27.494;2022-12-17T05:00:25;98999.25;;;13.50;100.00
56811;BME280;42691;47.234;27.494;2022-12-17T05:03:11;99001.56;;;13.55;100.00
56811;BME280;42691;47.234;27.494;2022-12-17T05:05:56;98990.47;;;13.51;100.00
56811;BME280;42691;47.234;27.494;2022-12-17T05:08:39;98982.66;;;13.51;100.00
56811;BME280;42691;47.234;27.494;2022-12-17T05:11:24;98972.13;;;13.40;100.00
56811;BME280;42691;47.234;27.494;2022-12-17T05:14:08;98982.13;;;13.46;100.00
56811;BME280;42691;47.234;27.494;2022-12-17T05:16:52;98963.97;;;13.44;100.00
56811;BME280;42691;47.234;27.494;2022-12-17T05:19:36;98949.75;;;13.36;100.00
56811;BME280;42691;47.234;27.494;2022-12-17T05:22:20;98956.78;;;13.23;100.00
56811;BME280;42691;47.234;27.494;2022-12-17T05:25:04;98950.84;;;13.21;100.00
56811;BME280;42691;47.234;27.494;2022-12-17T05:27:48;98970.06;;;13.20;100.00
56811;BME280;42691;47.234;27.494;2022-12-17T05:30:32;98992.19;;;13.14;100.00
56811;BME280;42691;47.234;27.494;2022-12-17T05:33:16;98994.81;;;13.14;100.00
56811;BME280;42691;47.234;27.494;2022-12-17T05:36:01;98992.84;;;13.18;100.00
56811;BME280;42691;47.234;27.494;2022-12-17T05:38:46;98987.63;;;13.18;100.00
56811;BME280;42691;47.234;27.494;2022-12-17T05:41:31;98982.69;;;13.13;100.00
56811;BME280;42691;47.234;27.494;2022-12-17T05:44:15;98989.69;;;13.12;100.00
56811;BME280;42691;47.234;27.494;2022-12-17T05:46:59;99010.78;;;13.09;100.00
56811;BME280;42691;47.234;27.494;2022-12-17T05:49:43;98997.00;;;13.07;100.00
56811;BME280;42691;47.234;27.494;2022-12-17T05:52:27;98990.53;;;13.00;100.00
56811;BME280;42691;47.234;27.494;2022-12-17T05:55:11;98989.50;;;12.90;100.00
56811;BME280;42691;47.234;27.494;2022-12-17T05:58:06;98994.72;;;12.90;100.00
56811;BME280;42691;47.234;27.494;2022-12-17T06:00:58;98985.75;;;12.81;100.00
56811;BME280;42691;47.234;27.494;2022-12-17T06:03:42;99010.59;;;12.87;100.00
56811;BME280;42691;47.234;27.494;2022-12-17T06:06:26;99033.03;;;12.90;100.00
56811;BME280;42691;47.234;27.494;2022-12-17T06:09:10;99024.56;;;12.86;100.00
56811;BME280;42691;47.234;27.494;2022-12-17T06:11:54;99019.16;;;12.89;100.00
56811;BME280;42691;47.234;27.494;2022-12-17T06:14:38;99042.31;;;12.94;100.00
56811;BME280;42691;47.234;27.494;2022-12-17T06:17:51;99018.09;;;12.92;100.00
56811;BME280;42691;47.234;27.494;2022-12-17T06:20:35;99017.69;;;12.85;100.00
56811;BME280;42691;47.234;27.494;2022-12-17T06:23:19;99013.72;;;12.79;100.00
56811;BME280;42691;47.234;27.494;2022-12-17T06:26:03;99020.41;;;12.71;100.00
56811;BME280;42691;47.234;27.494;2022-12-17T06:28:47;99028.81;;;12.62;100.00
56811;BME280;42691;47.234;27.494;2022-12-17T06:31:31;99033.50;;;12.57;100.00
56811;BME280;42691;47.234;27.494;2022-12-17T06:34:15;99044.78;;;12.57;100.00
56811;BME280;42691;47.234;27.494;2022-12-17T06:36:59;99053.44;;;12.58;100.00
56811;BME280;42691;47.234;27.494;2022-12-17T06:39:43;99061.06;;;12.61;100.00
56811;BME280;42691;47.234;27.494;2022-12-17T06:42:27;99040.19;;;12.61;100.00
56811;BME280;42691;47.234;27.494;2022-12-17T06:45:11;99063.69;;;12.61;100.00
56811;BME280;42691;47.234;27.494;2022-12-17T06:48:06;99111.06;;;12.55;100.00
56811;BME280;42691;47.234;27.494;2022-12-17T06:50:54;99122.84;;;12.60;100.00
56811;BME280;42691;47.234;27.494;2022-12-17T06:53:41;99115.44;;;12.54;100.00
56811;BME280;42691;47.234;27.494;2022-12-17T06:56:25;99139.72;;;12.69;100.00
56811;BME280;42691;47.234;27.494;2022-12-17T06:59:09;99135.53;;;12.66;100.00
56811;BME280;42691;47.234;27.494;2022-12-17T07:01:53;99142.91;;;12.60;100.00
56811;BME280;42691;47.234;27.494;2022-12-17T07:04:37;99143.09;;;12.57;100.00
56811;BME280;42691;47.234;27.494;2022-12-17T07:07:21;99142.91;;;12.60;100.00
56811;BME280;42691;47.234;27.494;2022-12-17T07:10:05;99134.34;;;12.58;100.00
56811;BME280;42691;47.234;27.494;2022-12-17T07:12:49;99109.19;;;12.57;100.00
56811;BME280;42691;47.234;27.494;2022-12-17T07:15:41;99089.25;;;12.56;100.00
56811;BME280;42691;47.234;27.494;2022-12-17T07:18:25;99108.13;;;12.59;100.00
56811;BME280;42691;47.234;27.494;2022-12-17T07:21:09;99096.88;;;12.59;100.00
56811;BME280;42691;47.234;27.494;2022-12-17T07:23:53;99107.19;;;12.60;100.00
56811;BME280;42691;47.234;27.494;2022-12-17T07:26:37;99101.16;;;12.60;100.00
56811;BME280;42691;47.234;27.494;2022-12-17T07:29:21;99099.47;;;12.59;100.00
56811;BME280;42691;47.234;27.494;2022-12-17T07:32:05;99114.09;;;12.61;100.00
56811;BME280;42691;47.234;27.494;2022-12-17T07:34:49;99103.03;;;12.58;100.00
56811;BME280;42691;47.234;27.494;2022-12-17T07:37:33;99077.97;;;12.55;100.00
56811;BME280;42691;47.234;27.494;2022-12-17T07:40:17;99058.13;;;12.52;100.00
56811;BME280;42691;47.234;27.494;2022-12-17T07:43:08;99062.28;;;12.42;100.00
56811;BME280;42691;47.234;27.494;2022-12-17T07:45:53;99086.09;;;12.50;100.00
56811;BME280;42691;47.234;27.494;2022-12-17T07:48:37;99072.31;;;12.48;100.00
56811;BME280;42691;47.234;27.494;2022-12-17T07:51:21;99074.19;;;12.46;100.00
56811;BME280;42691;47.234;27.494;2022-12-17T07:54:05;99077.53;;;12.48;100.00
56811;BME280;42691;47.234;27.494;2022-12-17T07:56:49;99054.25;;;12.45;100.00
56811;BME280;42691;47.234;27.494;2022-12-17T07:59:33;99052.69;;;12.43;100.00
56811;BME280;42691;47.234;27.494;2022-12-17T08:02:16;99097.78;;;12.45;100.00
56811;BME280;42691;47.234;27.494;2022-12-17T08:05:01;99074.41;;;12.43;100.00
56811;BME280;42691;47.234;27.494;2022-12-17T08:07:45;99086.19;;;12.36;100.00
56811;BME280;42691;47.234;27.494;2022-12-17T08:10:28;99095.06;;;12.46;100.00
56811;BME280;42691;47.234;27.494;2022-12-17T08:13:12;99090.69;;;12.47;100.00
56811;BME280;42691;47.234;27.494;2022-12-17T08:15:56;99089.84;;;12.46;100.00
56811;BME280;42691;47.234;27.494;2022-12-17T08:18:40;99095.59;;;12.51;100.00
56811;BME280;42691;47.234;27.494;2022-12-17T08:21:24;99087.78;;;12.51;100.00
56811;BME280;42691;47.234;27.494;2022-12-17T08:24:08;99093.00;;;12.51;100.00
56811;BME280;42691;47.234;27.494;2022-12-17T08:26:52;99085.47;;;12.47;100.00
56811;BME280;42691;47.234;27.494;2022-12-17T08:29:36;99077.00;;;12.43;100.00
56811;BME280;42691;47.234;27.494;2022-12-17T08:32:20;99074.59;;;12.40;100.00
56811;BME280;42691;47.234;27.494;2022-12-17T08:35:04;99074.59;;;12.40;100.00
56811;BME280;42691;47.234;27.494;2022-12-17T08:37:48;99085.03;;;12.40;100.00
56811;BME280;42691;47.234;27.494;2022-12-17T08:40:49;99091.19;;;12.39;100.00
56811;BME280;42691;47.234;27.494;2022-12-17T08:43:33;99091.50;;;12.35;100.00
56811;BME280;42691;47.234;27.494;2022-12-17T08:46:18;99091.50;;;12.35;100.00
56811;BME280;42691;47.234;27.494;2022-12-17T08:49:02;99076.88;;;12.32;100.00
56811;BME280;42691;47.234;27.494;2022-12-17T08:51:46;99076.88;;;12.32;100.00
56811;BME280;42691;47.234;27.494;2022-12-17T08:54:30;99084.50;;;12.35;100.00
56811;BME280;42691;47.234;27.494;2022-12-17T08:57:14;99094.00;;;12.36;100.00
56811;BME280;42691;47.234;27.494;2022-12-17T08:59:58;99094.84;;;12.37;100.00
56811;BME280;42691;47.234;27.494;2022-12-17T09:02:42;99107.88;;;12.37;100.00
56811;BME280;42691;47.234;27.494;2022-12-17T09:05:26;99101.53;;;12.41;100.00
56811;BME280;42691;47.234;27.494;2022-12-17T09:08:10;99079.63;;;12.43;100.00
56811;BME280;42691;47.234;27.494;2022-12-17T09:10:54;99081.50;;;12.41;100.00
56811;BME280;42691;47.234;27.494;2022-12-17T09:13:38;99089.13;;;12.44;100.00
56811;BME280;42691;47.234;27.494;2022-12-17T09:16:22;99080.56;;;12.42;100.00
56811;BME280;42691;47.234;27.494;2022-12-17T09:19:09;99077.94;;;12.42;100.00
56811;BME280;42691;47.234;27.494;2022-12-17T09:21:53;99070.03;;;12.44;100.00
56811;BME280;42691;47.234;27.494;2022-12-17T09:24:37;99060.94;;;12.49;100.00
56811;BME280;42691;47.234;27.494;2022-12-17T09:27:20;99070.66;;;12.47;100.00
56811;BME280;42691;47.234;27.494;2022-12-17T09:30:05;99095.91;;;12.47;100.00
56811;BME280;42691;47.234;27.494;2022-12-17T09:32:49;99090.59;;;12.48;100.00
56811;BME280;42691;47.234;27.494;2022-12-17T09:35:36;99076.81;;;12.46;100.00
56811;BME280;42691;47.234;27.494;2022-12-17T09:38:20;99067.63;;;12.41;100.00
56811;BME280;42691;47.234;27.494;2022-12-17T09:41:38;99070.44;;;12.50;100.00
56811;BME280;42691;47.234;27.494;2022-12-17T09:47:40;99042.47;;;12.52;100.00
56811;BME280;42691;47.234;27.494;2022-12-17T09:50:25;99052.50;;;12.59;100.00
56811;BME280;42691;47.234;27.494;2022-12-17T09:53:19;99041.25;;;12.58;100.00
56811;BME280;42691;47.234;27.494;2022-12-17T09:56:05;99007.00;;;12.63;100.00
56811;BME280;42691;47.234;27.494;2022-12-17T09:58:49;99003.28;;;12.67;100.00
56811;BME280;42691;47.234;27.494;2022-12-17T10:01:34;98994.91;;;12.62;100.00
56811;BME280;42691;47.234;27.494;2022-12-17T10:04:28;99002.03;;;12.72;100.00
56811;BME280;42691;47.234;27.494;2022-12-17T10:07:17;99001.09;;;12.73;100.00
56811;BME280;42691;47.234;27.494;2022-12-17T10:10:19;98975.31;;;12.69;100.00
56811;BME280;42691;47.234;27.494;2022-12-17T10:13:10;99009.75;;;12.74;100.00
56811;BME280;42691;47.234;27.494;2022-12-17T10:15:54;99022.81;;;12.74;100.00
56811;BME280;42691;47.234;27.494;2022-12-17T10:18:38;99019.03;;;12.78;100.00
56811;BME280;42691;47.234;27.494;2022-12-17T10:21:22;99014.56;;;12.80;100.00
56811;BME280;42691;47.234;27.494;2022-12-17T10:24:08;99022.19;;;12.83;100.00
56811;BME280;42691;47.234;27.494;2022-12-17T10:26:53;99004.53;;;12.74;100.00
56811;BME280;42691;47.234;27.494;2022-12-17T10:29:39;99000.97;;;12.75;100.00
56811;BME280;42691;47.234;27.494;2022-12-17T10:32:24;99021.88;;;12.75;100.00
56811;BME280;42691;47.234;27.494;2022-12-17T10:35:34;99043.56;;;12.75;100.00
56811;BME280;42691;47.234;27.494;2022-12-17T10:38:25;99042.31;;;12.81;100.00
56811;BME280;42691;47.234;27.494;2022-12-17T10:41:30;99031.56;;;12.86;100.00
56811;BME280;42691;47.234;27.494;2022-12-17T10:44:32;99047.13;;;12.87;100.00
56811;BME280;42691;47.234;27.494;2022-12-17T10:50:23;99066.75;;;12.93;100.00
56811;BME280;42691;47.234;27.494;2022-12-17T10:53:21;99067.59;;;12.93;100.00
56811;BME280;42691;47.234;27.494;2022-12-17T10:56:06;99048.69;;;12.90;100.00
56811;BME280;42691;47.234;27.494;2022-12-17T10:59:01;99045.78;;;12.94;100.00
56811;BME280;42691;47.234;27.494;2022-12-17T11:01:45;99043.06;;;12.96;100.00
56811;BME280;42691;47.234;27.494;2022-12-17T11:04:31;99059.56;;;12.96;100.00
56811;BME280;42691;47.234;27.494;2022-12-17T11:07:26;99055.91;;;12.99;100.00
56811;BME280;42691;47.234;27.494;2022-12-17T11:10:18;99037.94;;;12.94;100.00
56811;BME280;42691;47.234;27.494;2022-12-17T11:13:07;99056.00;;;13.97;100.00
56811;BME280;42691;47.234;27.494;2022-12-17T11:15:53;99043.31;;;13.67;100.00
56811;BME280;42691;47.234;27.494;2022-12-17T11:21:29;99045.69;;;13.34;100.00
56811;BME280;42691;47.234;27.494;2022-12-17T11:24:21;99052.78;;;13.32;100.00
56811;BME280;42691;47.234;27.494;2022-12-17T11:27:07;99068.88;;;13.26;100.00
56811;BME280;42691;47.234;27.494;2022-12-17T11:29:53;99078.09;;;13.19;100.00
56811;BME280;42691;47.234;27.494;2022-12-17T11:32:43;99086.09;;;13.15;100.00
56811;BME280;42691;47.234;27.494;2022-12-17T11:35:47;99096.03;;;13.10;100.00
56811;BME280;42691;47.234;27.494;2022-12-17T11:50:40;99091.63;;;12.98;100.00
56811;BME280;42691;47.234;27.494;2022-12-17T11:56:52;99095.38;;;12.94;100.00
56811;BME280;42691;47.234;27.494;2022-12-17T11:59:40;99106.66;;;12.95;100.00
56811;BME280;42691;47.234;27.494;2022-12-17T12:02:58;99109.56;;;12.90;100.00
56811;BME280;42691;47.234;27.494;2022-12-17T12:06:00;99118.25;;;12.91;100.00
56811;BME280;42691;47.234;27.494;2022-12-17T12:09:11;99120.31;;;12.86;100.00
56811;BME280;42691;47.234;27.494;2022-12-17T12:18:19;99106.84;;;12.79;100.00
56811;BME280;42691;47.234;27.494;2022-12-17T12:21:29;99115.63;;;12.78;100.00
56811;BME280;42691;47.234;27.494;2022-12-17T12:24:40;99135.03;;;12.74;100.00
56811;BME280;42691;47.234;27.494;2022-12-17T12:28:36;99152.34;;;12.75;100.00
56811;BME280;42691;47.234;27.494;2022-12-17T12:34:40;99165.81;;;12.69;100.00
56811;BME280;42691;47.234;27.494;2022-12-17T12:36:53;99181.84;;;12.63;100.00
56811;BME280;42691;47.234;27.494;2022-12-17T12:40:01;99163.72;;;12.47;100.00
56811;BME280;42691;47.234;27.494;2022-12-17T12:42:53;99191.63;;;12.59;100.00
56811;BME280;42691;47.234;27.494;2022-12-17T12:45:51;99184.41;;;12.50;100.00
56811;BME280;42691;47.234;27.494;2022-12-17T12:48:43;99185.44;;;12.47;100.00
56811;BME280;42691;47.234;27.494;2022-12-17T12:51:32;99185.63;;;12.44;100.00
56811;BME280;42691;47.234;27.494;2022-12-17T12:57:59;99209.22;;;12.43;100.00
56811;BME280;42691;47.234;27.494;2022-12-17T13:06:52;99213.63;;;12.28;100.00
56811;BME280;42691;47.234;27.494;2022-12-17T13:14:33;99253.31;;;12.05;100.00
56811;BME280;42691;47.234;27.494;2022-12-17T13:17:18;99256.47;;;12.10;100.00
56811;BME280;42691;47.234;27.494;2022-12-17T13:19:58;99265.31;;;12.07;100.00
56811;BME280;42691;47.234;27.494;2022-12-17T13:22:30;99247.06;;;12.07;100.00
56811;BME280;42691;47.234;27.494;2022-12-17T13:25:18;99256.09;;;12.02;100.00
56811;BME280;42691;47.234;27.494;2022-12-17T13:27:44;99259.47;;;12.04;100.00
56811;BME280;42691;47.234;27.494;2022-12-17T13:41:08;99334.38;;;11.86;100.00
56811;BME280;42691;47.234;27.494;2022-12-17T13:43:48;99323.09;;;11.85;100.00
56811;BME280;42691;47.234;27.494;2022-12-17T13:46:21;99330.19;;;11.83;100.00
56811;BME280;42691;47.234;27.494;2022-12-17T13:49:01;99325.38;;;11.76;100.00
56811;BME280;42691;47.234;27.494;2022-12-17T13:51:30;99321.84;;;11.77;100.00
56811;BME280;42691;47.234;27.494;2022-12-17T13:53:59;99317.41;;;11.79;100.00
56811;BME280;42691;47.234;27.494;2022-12-17T13:56:35;99323.81;;;11.73;100.00
56811;BME280;42691;47.234;27.494;2022-12-17T13:59:03;99320.25;;;11.74;100.00
56811;BME280;42691;47.234;27.494;2022-12-17T14:01:29;99328.09;;;11.74;100.00
56811;BME280;42691;47.234;27.494;2022-12-17T14:03:57;99333.09;;;11.63;100.00
56811;BME280;42691;47.234;27.494;2022-12-17T14:06:26;99334.84;;;11.63;100.00
56811;BME280;42691;47.234;27.494;2022-12-17T14:08:55;99341.84;;;11.62;100.00
56811;BME280;42691;47.234;27.494;2022-12-17T14:11:21;99342.38;;;11.53;100.00
56811;BME280;42691;47.234;27.494;2022-12-17T14:14:48;99368.06;;;11.59;100.00
56811;BME280;42691;47.234;27.494;2022-12-17T14:16:54;99355.97;;;11.58;100.00
56811;BME280;42691;47.234;27.494;2022-12-17T14:19:20;99353.53;;;11.55;100.00
56811;BME280;42691;47.234;27.494;2022-12-17T14:21:46;99377.66;;;11.58;100.00
56811;BME280;42691;47.234;27.494;2022-12-17T14:24:12;99382.94;;;11.57;100.00
56811;BME280;42691;47.234;27.494;2022-12-17T14:26:54;99397.56;;;11.59;100.00
56811;BME280;42691;47.234;27.494;2022-12-17T14:29:27;99403.44;;;11.63;100.00
56811;BME280;42691;47.234;27.494;2022-12-17T14:31:59;99406.03;;;11.63;100.00
56811;BME280;42691;47.234;27.494;2022-12-17T14:34:25;99413.09;;;11.61;100.00
56811;BME280;42691;47.234;27.494;2022-12-17T14:36:55;99432.44;;;11.57;100.00
56811;BME280;42691;47.234;27.494;2022-12-17T14:39:27;99429.09;;;11.55;100.00
56811;BME280;42691;47.234;27.494;2022-12-17T14:41:55;99429.09;;;11.55;100.00
56811;BME280;42691;47.234;27.494;2022-12-17T14:45:04;99451.91;;;11.50;100.00
56811;BME280;42691;47.234;27.494;2022-12-17T14:47:35;99453.59;;;11.51;100.00
56811;BME280;42691;47.234;27.494;2022-12-17T14:57:47;99459.41;;;11.40;100.00
56811;BME280;42691;47.234;27.494;2022-12-17T15:00:13;99475.78;;;11.42;100.00
56811;BME280;42691;47.234;27.494;2022-12-17T15:02:41;99479.16;;;11.44;100.00
56811;BME280;42691;47.234;27.494;2022-12-17T15:05:12;99476.63;;;11.43;100.00
56811;BME280;42691;47.234;27.494;2022-12-17T15:07:38;99462.19;;;11.37;100.00
56811;BME280;42691;47.234;27.494;2022-12-17T15:10:09;99480.84;;;11.45;100.00
56811;BME280;42691;47.234;27.494;2022-12-17T15:12:35;99479.16;;;11.44;100.00
56811;BME280;42691;47.234;27.494;2022-12-17T15:15:00;99485.28;;;11.43;100.00
56811;BME280;42691;47.234;27.494;2022-12-17T15:17:26;99491.41;;;11.42;100.00
56811;BME280;42691;47.234;27.494;2022-12-17T15:19:51;99507.13;;;11.41;100.00
56811;BME280;42691;47.234;27.494;2022-12-17T15:22:17;99522.16;;;11.36;100.00
56811;BME280;42691;47.234;27.494;2022-12-17T15:24:43;99528.22;;;11.20;100.00